Time;durP1;ratioP1;P1;durP2;ratioP2;P2;SDS_P1;SDS_P2;PMS_P1;PMS_P2;Temp;Humidity;BMP_temperature;BMP_pressure;BME280_temperature;BME280_humidity;BME280_pressure;Samples;Min_cycle;Max_cycle;Signal;HPM_P1;HPM_P2
2022/03/14 00:01:33;;;;;;;2.85;2.65;;;;;;;10.36;100.00;163273.25;5070711;28;20029;-63
2022/03/14 00:03:59;;;;;;;2.70;2.50;;;;;;;10.33;100.00;163265.16;5069213;28;20415;-63
2022/03/14 00:06:26;;;;;;;2.90;2.63;;;;;;;10.32;100.00;163263.81;5070776;28;20028;-63
2022/03/14 00:08:55;;;;;;;2.95;2.75;;;;;;;10.29;100.00;163254.38;5068984;28;20045;-62
2022/03/14 00:11:22;;;;;;;2.67;2.15;;;;;;;10.29;100.00;163254.38;5073956;28;20023;-62
2022/03/14 00:13:47;;;;;;;2.72;2.53;;;;;;;10.29;100.00;163254.38;5073599;28;20527;-62
2022/03/14 00:16:18;;;;;;;2.00;1.85;;;;;;;10.27;100.00;163248.97;5073904;28;20043;-62
2022/03/14 00:18:46;;;;;;;3.03;2.83;;;;;;;10.27;100.00;163248.97;5073192;28;20500;-62
2022/03/14 00:21:11;;;;;;;2.97;2.55;;;;;;;10.29;100.00;163254.38;5075001;28;20076;-62
2022/03/14 00:23:37;;;;;;;2.70;2.50;;;;;;;10.29;100.00;163255.72;5072787;28;20051;-62
2022/03/14 00:26:06;;;;;;;4.65;2.92;;;;;;;10.28;100.00;163251.66;5074429;28;20078;-61
2022/03/14 00:28:31;;;;;;;2.88;2.67;;;;;;;10.31;100.00;163259.78;5073131;28;20415;-61
2022/03/14 00:30:56;;;;;;;3.33;3.03;;;;;;;10.33;100.00;163265.16;5074219;28;20032;-62
2022/03/14 00:33:22;;;;;;;2.58;2.38;;;;;;;10.31;100.00;163259.78;5072341;28;20040;-62
2022/03/14 00:35:47;;;;;;;6.10;3.03;;;;;;;10.27;100.00;163250.34;5073969;28;20020;-62
2022/03/14 00:38:15;;;;;;;3.47;2.90;;;;;;;10.27;100.00;163248.97;5072575;28;20400;-62
2022/03/14 00:40:40;;;;;;;3.23;2.73;;;;;;;10.22;100.00;163236.81;5074393;28;20039;-62
2022/03/14 00:43:07;;;;;;;3.00;2.80;;;;;;;10.14;100.00;163216.59;5072650;28;20041;-59
2022/03/14 00:45:33;;;;;;;4.15;3.10;;;;;;;10.10;100.00;163205.78;5073972;28;20078;-59
2022/03/14 00:47:58;;;;;;;2.63;2.47;;;;;;;10.02;100.00;163184.19;5072747;28;20044;-59
2022/03/14 00:50:25;;;;;;;2.88;2.65;;;;;;;10.01;100.00;163181.53;5073995;28;20025;-59
2022/03/14 00:52:51;;;;;;;2.88;2.58;;;;;;;9.95;100.00;163166.66;5072492;28;20069;-60
2022/03/14 00:55:16;;;;;;;2.55;2.35;;;;;;;9.88;100.00;163146.41;5073947;28;20062;-60
2022/03/14 00:57:41;;;;;;;4.38;3.97;;;;;;;9.74;100.00;163110.00;5072318;28;20048;-60
2022/03/14 01:00:07;;;;;;;3.00;2.80;;;;;;;9.63;100.00;163081.69;5072982;28;20052;-60
2022/03/14 01:02:33;;;;;;;3.25;3.05;;;;;;;9.51;100.00;163051.97;5072775;28;20044;-62
2022/03/14 01:04:58;;;;;;;2.75;2.53;;;;;;;9.51;100.00;163051.97;5073881;28;20525;-60
2022/03/14 01:07:24;;;;;;;3.20;2.90;;;;;;;9.57;100.00;163065.50;5072005;28;20434;-60
2022/03/14 01:09:49;;;;;;;3.28;2.92;;;;;;;9.48;100.00;163043.91;5074013;28;20024;-60
2022/03/14 01:12:15;;;;;;;2.65;2.45;;;;;;;9.45;100.00;163035.81;5072335;28;20526;-60
2022/03/14 01:14:43;;;;;;;2.70;2.50;;;;;;;9.43;100.00;163030.38;5073743;28;20016;-60
2022/03/14 01:17:09;;;;;;;3.72;3.42;;;;;;;9.45;100.00;163035.81;5071810;28;20079;-60
2022/03/14 01:19:34;;;;;;;2.80;2.60;;;;;;;9.48;100.00;163043.91;5073197;28;20383;-60
2022/03/14 01:22:00;;;;;;;3.25;2.97;;;;;;;9.49;100.00;163046.56;5071427;28;20048;-60
2022/03/14 01:24:25;;;;;;;3.28;2.97;;;;;;;9.48;100.00;163043.91;5073790;28;20511;-60
2022/03/14 01:26:51;;;;;;;3.13;2.92;;;;;;;9.44;100.00;163031.75;5072320;28;20090;-60
2022/03/14 01:29:17;;;;;;;3.60;2.90;;;;;;;9.39;100.00;163018.25;5072817;28;20031;-60
2022/03/14 01:31:43;;;;;;;3.50;3.20;;;;;;;9.29;100.00;162992.63;5072068;28;20131;-60
2022/03/14 01:34:08;;;;;;;3.75;3.45;;;;;;;9.24;100.00;162979.16;5072988;28;20016;-60
2022/03/14 01:36:34;;;;;;;3.53;2.55;;;;;;;9.21;100.00;162973.75;5071676;28;20037;-60
2022/03/14 01:39:00;;;;;;;2.80;2.60;;;;;;;9.17;100.00;162962.97;5073213;28;20020;-60
2022/03/14 01:41:26;;;;;;;3.88;3.58;;;;;;;9.20;100.00;162971.03;5071936;28;20036;-60
2022/03/14 01:43:52;;;;;;;3.42;3.13;;;;;;;9.16;100.00;162960.28;5073036;28;20109;-60
2022/03/14 01:46:18;;;;;;;4.13;3.83;;;;;;;9.20;100.00;162969.72;5071122;28;20581;-60
2022/03/14 01:48:44;;;;;;;2.83;2.63;;;;;;;9.19;100.00;162968.38;5073229;28;20020;-60
2022/03/14 01:51:10;;;;;;;3.50;3.20;;;;;;;9.13;100.00;162952.16;5071388;28;20020;-62
2022/03/14 01:53:36;;;;;;;3.00;2.70;;;;;;;9.17;100.00;162962.97;5073181;28;20388;-62
2022/03/14 01:56:02;;;;;;;3.05;2.83;;;;;;;9.20;100.00;162971.03;5072935;28;20055;-62
2022/03/14 01:58:28;;;;;;;3.42;3.13;;;;;;;9.25;100.00;162981.84;5070606;28;20064;-62
2022/03/14 02:00:53;;;;;;;3.33;3.10;;;;;;;9.27;100.00;162988.59;5073060;28;20032;-60
2022/03/14 02:03:19;;;;;;;2.85;2.65;;;;;;;9.38;100.00;163016.91;5071073;28;20044;-60
2022/03/14 02:05:45;;;;;;;3.40;3.20;;;;;;;9.39;100.00;163018.25;5071379;28;20379;-60
2022/03/14 02:08:11;;;;;;;3.38;3.08;;;;;;;9.43;100.00;163030.38;5071167;28;20083;-60
2022/03/14 02:10:38;;;;;;;3.22;2.92;;;;;;;9.52;100.00;163054.69;5072769;28;20503;-62
2022/03/14 02:13:09;;;;;;;4.28;3.70;;;;;;;9.47;100.00;163041.22;5070366;28;20764;-62
2022/03/14 02:15:35;;;;;;;3.85;2.55;;;;;;;9.49;100.00;163046.56;5072568;28;20031;-62
2022/03/14 02:18:01;;;;;;;4.10;2.63;;;;;;;9.39;100.00;163019.63;5070878;28;20036;-62
2022/03/14 02:20:27;;;;;;;3.25;3.05;;;;;;;9.41;100.00;163025.03;5072230;28;20016;-62
2022/03/14 02:22:52;;;;;;;6.65;3.88;;;;;;;9.47;100.00;163041.22;5071169;28;20098;-62
2022/03/14 02:25:18;;;;;;;3.50;3.17;;;;;;;9.47;100.00;163041.22;5071906;28;20024;-62
2022/03/14 02:27:43;;;;;;;3.63;3.33;;;;;;;9.44;100.00;163033.09;5070632;28;20043;-61
2022/03/14 02:30:09;;;;;;;4.15;2.70;;;;;;;9.43;100.00;163030.38;5072096;28;20055;-62
2022/03/14 02:32:39;;;;;;;3.97;3.58;;;;;;;9.34;100.00;163007.47;5069796;28;20052;-61
2022/03/14 02:35:05;;;;;;;5.15;4.70;;;;;;;9.33;100.00;163003.44;5072033;28;20146;-61
2022/03/14 02:37:31;;;;;;;3.50;3.20;;;;;;;9.33;100.00;163003.44;5070894;28;20046;-60
2022/03/14 02:39:56;;;;;;;3.03;2.80;;;;;;;9.35;100.00;163010.19;5071738;28;20025;-60
2022/03/14 02:42:21;;;;;;;3.35;2.92;;;;;;;9.41;100.00;163023.66;5069339;28;20110;-60
2022/03/14 02:44:46;;;;;;;2.83;2.42;;;;;;;9.45;100.00;163035.81;5071967;28;20035;-60
2022/03/14 02:47:12;;;;;;;3.25;3.05;;;;;;;9.45;100.00;163035.81;5070368;28;20039;-60
2022/03/14 02:49:37;;;;;;;3.70;3.40;;;;;;;9.48;100.00;163043.91;5071937;28;20024;-60
2022/03/14 02:52:03;;;;;;;4.65;4.30;;;;;;;9.57;100.00;163065.50;5070105;28;20040;-60
2022/03/14 02:54:28;;;;;;;3.67;3.05;;;;;;;9.56;100.00;163062.78;5072007;28;20479;-60
2022/03/14 02:56:54;;;;;;;4.13;3.83;;;;;;;9.53;100.00;163057.38;5069948;28;20059;-60
2022/03/14 02:59:20;;;;;;;4.10;3.38;;;;;;;9.53;100.00;163056.06;5071197;28;20445;-60
2022/03/14 03:01:46;;;;;;;4.15;3.53;;;;;;;9.52;100.00;163054.69;5070430;28;20102;-60
2022/03/14 03:04:11;;;;;;;3.78;3.47;;;;;;;9.47;100.00;163041.22;5071215;28;20071;-60
2022/03/14 03:06:36;;;;;;;3.63;3.33;;;;;;;9.47;100.00;163039.81;5069896;28;20040;-61
2022/03/14 03:09:03;;;;;;;3.00;2.80;;;;;;;9.43;100.00;163030.38;5071007;28;20020;-61
2022/03/14 03:11:30;;;;;;;3.65;3.35;;;;;;;9.41;100.00;163025.03;5069948;28;20086;-61
2022/03/14 03:13:56;;;;;;;3.10;2.80;;;;;;;9.47;100.00;163041.22;5071038;28;20162;-60
2022/03/14 03:16:22;;;;;;;3.60;3.30;;;;;;;9.42;100.00;163027.69;5069841;28;20430;-60
2022/03/14 03:18:48;;;;;;;3.80;3.50;;;;;;;9.47;100.00;163041.22;5071345;28;20069;-60
2022/03/14 03:21:14;;;;;;;5.28;4.07;;;;;;;9.45;100.00;163035.81;5069511;28;20024;-60
2022/03/14 03:23:40;;;;;;;3.38;3.13;;;;;;;9.39;100.00;163019.63;5071269;28;20066;-60
2022/03/14 03:26:06;;;;;;;4.18;3.75;;;;;;;9.41;100.00;163025.03;5071209;28;20411;-60
2022/03/14 03:28:37;;;;;;;5.10;4.63;;;;;;;9.36;100.00;163011.50;5069245;28;20078;-60
2022/03/14 03:31:09;;;;;;;4.30;3.63;;;;;;;9.35;100.00;163008.81;5071263;28;20029;-60
2022/03/14 03:33:35;;;;;;;4.63;4.30;;;;;;;9.36;100.00;163011.50;5068084;28;20052;-60
2022/03/14 03:36:01;;;;;;;3.42;3.08;;;;;;;9.39;100.00;163018.25;5070503;28;20029;-60
2022/03/14 03:38:27;;;;;;;3.22;2.92;;;;;;;9.37;100.00;163014.22;5069521;28;20102;-60
2022/03/14 03:40:53;;;;;;;3.42;3.13;;;;;;;9.32;100.00;163000.75;5071281;28;20025;-60
2022/03/14 03:43:18;;;;;;;3.85;3.45;;;;;;;9.30;100.00;162995.34;5068915;28;20411;-62
2022/03/14 03:45:44;;;;;;;4.15;3.75;;;;;;;9.33;100.00;163003.44;5070717;28;20086;-62
2022/03/14 03:48:09;;;;;;;3.65;3.35;;;;;;;9.28;100.00;162989.91;5068189;28;20408;-62
2022/03/14 03:50:34;;;;;;;5.22;4.50;;;;;;;9.23;100.00;162976.44;5070868;28;20032;-62
2022/03/14 03:53:00;;;;;;;4.85;4.45;;;;;;;9.16;100.00;162958.91;5069102;28;20813;-63
2022/03/14 03:55:25;;;;;;;3.72;3.40;;;;;;;9.08;100.00;162937.38;5070966;28;20043;-63
2022/03/14 03:57:50;;;;;;;4.35;3.95;;;;;;;9.01;100.00;162919.81;5069271;28;20043;-62
2022/03/14 04:00:16;;;;;;;4.07;3.78;;;;;;;8.95;100.00;162903.66;5070485;28;20055;-62
2022/03/14 04:02:44;;;;;;;4.32;3.92;;;;;;;8.84;100.00;162876.66;5069501;28;20051;-62
2022/03/14 04:05:10;;;;;;;4.68;4.28;;;;;;;8.74;100.00;162849.72;5070485;28;20029;-62
2022/03/14 04:07:35;;;;;;;4.88;4.47;;;;;;;8.69;100.00;162836.22;5069566;28;20041;-62
2022/03/14 04:10:02;;;;;;;7.43;5.55;;;;;;;8.57;100.00;162806.56;5070722;28;20533;-62
2022/03/14 04:12:28;;;;;;;5.35;4.85;;;;;;;8.48;100.00;162782.28;5068952;28;20042;-62
2022/03/14 04:14:58;;;;;;;5.10;4.65;;;;;;;8.40;100.00;162760.69;5070403;28;20383;-62
2022/03/14 04:17:29;;;;;;;5.95;5.45;;;;;;;8.31;100.00;162736.41;5069348;28;20124;-62
2022/03/14 04:19:56;;;;;;;5.78;5.28;;;;;;;8.26;100.00;162724.31;5070410;28;20020;-62
2022/03/14 04:22:21;;;;;;;7.63;5.90;;;;;;;8.29;100.00;162731.03;5069166;28;20131;-62
2022/03/14 04:24:46;;;;;;;5.97;5.43;;;;;;;8.29;100.00;162731.03;5070096;28;20074;-62
2022/03/14 04:27:12;;;;;;;6.93;6.32;;;;;;;8.28;100.00;162728.34;5068674;28;20048;-60
2022/03/14 04:29:37;;;;;;;7.07;4.80;;;;;;;8.19;100.00;162706.78;5070573;28;20579;-61
2022/03/14 04:32:03;;;;;;;7.35;6.55;;;;;;;8.20;100.00;162708.09;5068765;28;20052;-60
2022/03/14 04:34:28;;;;;;;9.63;5.32;;;;;;;8.18;100.00;162704.06;5070112;28;20043;-62
2022/03/14 04:36:54;;;;;;;6.70;6.10;;;;;;;8.14;100.00;162693.31;5069117;28;20380;-63
2022/03/14 04:39:20;;;;;;;6.68;5.25;;;;;;;8.16;100.00;162697.34;5070101;28;20041;-62
2022/03/14 04:41:46;;;;;;;6.13;5.57;;;;;;;8.18;100.00;162704.06;5068806;28;20032;-62
2022/03/14 04:44:11;;;;;;;6.20;5.63;;;;;;;8.15;100.00;162696.00;5070195;28;20115;-62
2022/03/14 04:46:36;;;;;;;11.07;6.25;;;;;;;8.13;100.00;162690.63;5068861;28;20040;-62
2022/03/14 04:49:07;;;;;;;7.22;6.20;;;;;;;8.13;100.00;162690.63;5070022;28;20036;-62
2022/03/14 04:51:33;;;;;;;7.13;6.03;;;;;;;8.08;100.00;162677.09;5069349;28;20369;-62
2022/03/14 04:53:58;;;;;;;6.85;6.15;;;;;;;8.02;100.00;162660.94;5070436;28;20025;-63
2022/03/14 04:56:23;;;;;;;6.57;5.90;;;;;;;8.00;100.00;162655.59;5069786;28;20052;-62
2022/03/14 04:58:49;;;;;;;6.63;5.93;;;;;;;8.02;100.00;162660.94;5073725;28;20055;-62
2022/03/14 05:01:15;;;;;;;9.95;5.97;;;;;;;7.94;100.00;162642.06;5072598;28;20103;-62
2022/03/14 05:03:40;;;;;;;8.00;7.22;;;;;;;7.94;100.00;162642.06;5073725;28;20020;-63
2022/03/14 05:06:05;;;;;;;9.18;7.25;;;;;;;7.94;100.00;162640.75;5071878;28;20111;-62
2022/03/14 05:08:31;;;;;;;7.50;6.80;;;;;;;7.89;100.00;162628.63;5073541;28;20031;-63
2022/03/14 05:10:57;;;;;;;7.07;6.22;;;;;;;7.84;100.00;162613.78;5074045;28;20044;-59
2022/03/14 05:13:23;;;;;;;10.50;6.97;;;;;;;7.80;100.00;162604.34;5071721;28;20052;-60
2022/03/14 05:15:48;;;;;;;8.85;7.22;;;;;;;7.79;100.00;162601.66;5073583;28;20376;-60
2022/03/14 05:18:14;;;;;;;9.20;8.30;;;;;;;7.75;100.00;162590.88;5071437;28;20075;-60
2022/03/14 05:20:40;;;;;;;9.27;8.40;;;;;;;7.76;100.00;162593.59;5073446;28;20024;-59
2022/03/14 05:23:05;;;;;;;10.38;8.18;;;;;;;7.72;100.00;162582.78;5071328;28;20072;-59
2022/03/14 05:25:31;;;;;;;9.07;8.18;;;;;;;7.73;100.00;162585.47;5073384;28;20035;-59
2022/03/14 05:27:57;;;;;;;10.13;9.15;;;;;;;7.74;100.00;162588.19;5071928;28;20056;-59
2022/03/14 05:30:24;;;;;;;11.75;9.32;;;;;;;7.68;100.00;162573.34;5072710;28;20036;-59
2022/03/14 05:32:49;;;;;;;10.50;9.15;;;;;;;7.72;100.00;162584.16;5071736;28;20064;-59
2022/03/14 05:35:15;;;;;;;10.60;9.48;;;;;;;7.69;100.00;162574.72;5073245;28;20024;-59
2022/03/14 05:37:42;;;;;;;12.40;9.95;;;;;;;7.70;100.00;162578.75;5070430;28;20033;-59
2022/03/14 05:40:08;;;;;;;12.48;11.05;;;;;;;7.70;100.00;162577.44;5071803;28;20077;-59
2022/03/14 05:42:34;;;;;;;13.18;8.63;;;;;;;7.69;100.00;162574.72;5070519;28;20090;-60
2022/03/14 05:44:59;;;;;;;12.88;9.57;;;;;;;7.72;100.00;162582.78;5073191;28;20539;-60
2022/03/14 05:47:25;;;;;;;12.10;10.68;;;;;;;7.68;100.00;162572.03;5071295;28;20040;-60
2022/03/14 05:49:50;;;;;;;11.60;10.15;;;;;;;7.67;100.00;162569.31;5073141;28;20480;-60
2022/03/14 05:52:18;;;;;;;13.50;10.35;;;;;;;7.69;100.00;162574.72;5071743;28;20044;-60
2022/03/14 05:54:43;;;;;;;14.63;12.00;;;;;;;7.68;100.00;162572.03;5073091;28;20013;-60
2022/03/14 05:57:08;;;;;;;14.10;12.65;;;;;;;7.67;100.00;162569.31;5068224;28;20087;-59
2022/03/14 05:59:34;;;;;;;15.20;11.45;;;;;;;7.64;100.00;162562.59;5072859;28;20044;-59
2022/03/14 06:01:59;;;;;;;14.60;12.93;;;;;;;7.63;100.00;162561.22;5065104;28;20040;-59
2022/03/14 06:04:24;;;;;;;16.15;13.38;;;;;;;7.58;100.00;162547.75;5062473;28;20108;-59
2022/03/14 06:06:50;;;;;;;15.75;13.98;;;;;;;7.58;100.00;162547.75;5060233;28;20048;-60
2022/03/14 06:09:15;;;;;;;15.73;13.38;;;;;;;7.59;100.00;162550.47;5062977;28;20026;-59
2022/03/14 06:11:42;;;;;;;16.42;14.48;;;;;;;7.61;100.00;162555.88;5060678;28;20044;-59
2022/03/14 06:14:07;;;;;;;15.73;13.73;;;;;;;7.62;100.00;162558.56;5061510;28;20056;-60
2022/03/14 06:16:34;;;;;;;15.60;13.68;;;;;;;7.66;100.00;162566.63;5061948;28;20503;-60
2022/03/14 06:18:59;;;;;;;19.83;16.88;;;;;;;7.62;100.00;162558.56;5061255;28;20021;-59
2022/03/14 06:21:24;;;;;;;17.02;13.25;;;;;;;7.66;100.00;162566.63;5060594;28;20051;-59
2022/03/14 06:23:50;;;;;;;16.65;14.70;;;;;;;7.65;100.00;162563.94;5063009;28;20024;-59
2022/03/14 06:26:15;;;;;;;19.98;15.07;;;;;;;7.61;100.00;162555.88;5058994;28;20024;-60
2022/03/14 06:28:42;;;;;;;18.05;14.80;;;;;;;7.62;100.00;162558.56;5062351;28;20043;-59
2022/03/14 06:31:09;;;;;;;18.40;16.40;;;;;;;7.66;100.00;162566.63;5060801;28;20021;-59
2022/03/14 06:33:35;;;;;;;17.40;15.50;;;;;;;7.69;100.00;162576.06;5060679;28;20096;-59
2022/03/14 06:36:00;;;;;;;16.20;14.60;;;;;;;7.71;100.00;162581.47;5061949;28;20376;-60
2022/03/14 06:38:26;;;;;;;20.77;15.68;;;;;;;7.74;100.00;162589.50;5060772;28;20511;-60
2022/03/14 06:40:51;;;;;;;20.02;16.75;;;;;;;7.69;100.00;162576.06;5060433;28;20083;-59
2022/03/14 06:43:17;;;;;;;20.08;15.80;;;;;;;7.67;100.00;162570.66;5060929;28;20039;-60
2022/03/14 06:45:44;;;;;;;26.60;16.33;;;;;;;7.74;100.00;162588.19;5061329;28;20070;-59
2022/03/14 06:48:09;;;;;;;17.73;15.45;;;;;;;7.76;100.00;162594.91;5058749;28;20109;-59
2022/03/14 06:50:36;;;;;;;20.15;16.60;;;;;;;7.76;100.00;162593.59;5062639;28;20032;-59
2022/03/14 06:53:03;;;;;;;16.30;13.85;;;;;;;7.79;100.00;162601.66;5059578;28;20527;-59
2022/03/14 06:55:28;;;;;;;15.88;14.30;;;;;;;7.83;100.00;162612.44;5060469;28;20016;-59
2022/03/14 06:57:54;;;;;;;18.30;14.50;;;;;;;7.85;100.00;162617.84;5060876;28;20040;-59
2022/03/14 07:00:19;;;;;;;17.50;14.82;;;;;;;7.85;100.00;162617.84;5061961;28;20051;-60
2022/03/14 07:02:45;;;;;;;15.82;13.30;;;;;;;7.83;100.00;162612.44;5059726;28;20400;-57
2022/03/14 07:05:13;;;;;;;19.10;12.80;;;;;;;7.85;100.00;162617.84;5060227;28;21288;-57
2022/03/14 07:07:40;;;;;;;15.10;13.05;;;;;;;7.83;100.00;162612.44;5067843;28;20041;-57
2022/03/14 07:10:07;;;;;;;16.80;15.20;;;;;;;7.81;100.00;162605.72;5067144;28;20020;-59
2022/03/14 07:12:35;;;;;;;18.40;14.98;;;;;;;7.76;100.00;162594.91;5059392;28;20587;-57
2022/03/14 07:15:00;;;;;;;20.40;16.63;;;;;;;7.73;100.00;162585.47;5059963;28;20048;-57
2022/03/14 07:17:26;;;;;;;21.75;16.38;;;;;;;7.72;100.00;162584.16;5060213;28;20047;-57
2022/03/14 07:19:52;;;;;;;18.73;16.73;;;;;;;7.73;100.00;162586.88;5058629;28;20012;-58
2022/03/14 07:22:19;;;;;;;18.00;15.15;;;;;;;7.73;100.00;162585.47;5059775;28;20044;-57
2022/03/14 07:24:47;;;;;;;18.13;16.23;;;;;;;7.75;100.00;162590.88;5064254;28;20095;-57
2022/03/14 07:27:13;;;;;;;17.50;15.02;;;;;;;7.79;100.00;162601.66;5059626;28;20036;-58
2022/03/14 07:29:38;;;;;;;17.60;15.55;;;;;;;7.81;100.00;162607.06;5059542;28;20032;-57
2022/03/14 07:32:04;;;;;;;18.30;16.35;;;;;;;7.84;100.00;162615.16;5058654;28;20093;-58
2022/03/14 07:34:31;;;;;;;16.90;15.07;;;;;;;7.87;100.00;162621.88;5058905;28;20034;-57
2022/03/14 07:36:56;;;;;;;20.48;16.70;;;;;;;7.99;100.00;162654.19;5059864;28;20047;-57
2022/03/14 07:39:22;;;;;;;17.60;15.55;;;;;;;8.06;100.00;162671.75;5059339;28;20020;-57
2022/03/14 07:41:47;;;;;;;16.38;14.70;;;;;;;8.03;100.00;162663.63;5060561;28;20040;-59
2022/03/14 07:44:13;;;;;;;15.93;13.98;;;;;;;8.06;100.00;162671.75;5059229;28;20033;-57
2022/03/14 07:46:38;;;;;;;18.15;15.02;;;;;;;8.03;100.00;162665.00;5059318;28;20032;-56
2022/03/14 07:49:03;;;;;;;16.95;14.60;;;;;;;8.07;100.00;162674.44;5060918;28;20021;-59
2022/03/14 07:51:29;;;;;;;17.15;15.32;;;;;;;8.10;100.00;162683.88;5058281;28;20094;-59
2022/03/14 07:53:54;;;;;;;16.98;14.65;;;;;;;8.09;100.00;162679.81;5061243;28;20472;-59
2022/03/14 07:56:20;;;;;;;15.18;13.68;;;;;;;8.10;100.00;162682.50;5060189;28;20361;-58
2022/03/14 07:58:46;;;;;;;17.67;15.38;;;;;;;8.07;100.00;162674.44;5060895;28;20298;-59
2022/03/14 08:01:11;;;;;;;16.63;14.38;;;;;;;8.06;100.00;162673.06;5055410;28;20357;-59
2022/03/14 08:03:36;;;;;;;18.63;16.52;;;;;;;8.03;100.00;162663.63;5063906;28;20044;-58
2022/03/14 08:06:07;;;;;;;16.40;14.18;;;;;;;8.06;100.00;162671.75;5061636;28;20032;-58
2022/03/14 08:08:33;;;;;;;16.67;14.85;;;;;;;8.07;100.00;162674.44;5058090;28;20377;-58
2022/03/14 08:11:01;;;;;;;19.48;17.55;;;;;;;8.11;100.00;162685.19;5060351;28;20036;-58
2022/03/14 08:13:27;;;;;;;18.45;16.45;;;;;;;8.12;100.00;162687.91;5066354;28;20415;-59
2022/03/14 08:15:53;;;;;;;17.95;16.10;;;;;;;8.15;100.00;162696.00;5070670;28;20017;-58
2022/03/14 08:18:18;;;;;;;19.50;17.50;;;;;;;8.24;100.00;162718.91;5069160;28;20040;-58
2022/03/14 08:20:44;;;;;;;17.05;15.30;;;;;;;8.24;100.00;162720.25;5054491;28;20092;-58
2022/03/14 08:23:09;;;;;;;20.60;17.65;;;;;;;8.26;100.00;162725.63;5048739;28;20037;-58
2022/03/14 08:25:35;;;;;;;17.45;15.65;;;;;;;8.29;100.00;162732.38;5050545;28;20040;-58
2022/03/14 08:28:00;;;;;;;18.30;15.52;;;;;;;8.36;100.00;162751.25;5048908;28;20037;-59
2022/03/14 08:30:26;;;;;;;18.38;16.48;;;;;;;8.38;100.00;162755.25;5063067;28;20036;-58
2022/03/14 08:32:55;;;;;;;17.95;16.05;;;;;;;8.52;100.00;162793.09;5072987;28;20041;-58
2022/03/14 08:35:21;;;;;;;18.35;15.52;;;;;;;8.62;100.00;162818.72;5074506;28;20021;-58
2022/03/14 08:37:48;;;;;;;19.98;16.40;;;;;;;8.78;100.00;162860.50;5072971;28;20044;-59
2022/03/14 08:40:16;;;;;;;17.67;15.70;;;;;;;8.88;100.00;162886.09;5067376;28;20410;-59
2022/03/14 08:42:42;;;;;;;17.45;15.40;;;;;;;8.91;100.00;162892.81;5072199;28;20504;-58
2022/03/14 08:45:08;;;;;;;18.48;16.67;;;;;;;8.98;100.00;162913.09;5071880;28;20043;-58
2022/03/14 08:47:34;;;;;;;17.50;15.70;;;;;;;9.01;100.00;162919.81;5072709;28;20115;-59
2022/03/14 08:50:02;;;;;;;16.63;14.93;;;;;;;9.04;100.00;162927.94;5064500;28;20055;-59
2022/03/14 08:52:28;;;;;;;18.17;15.82;;;;;;;9.07;100.00;162936.00;5063877;28;20411;-58
2022/03/14 08:54:54;;;;;;;19.15;17.40;;;;;;;9.00;100.00;162917.13;5057579;28;20021;-58
2022/03/14 08:57:20;;;;;;;20.42;15.70;;;;;;;8.84;100.00;162876.66;5068242;28;20408;-59
2022/03/14 08:59:45;;;;;;;21.05;17.65;;;;;;;9.04;100.00;162927.94;5060952;28;20045;-59
2022/03/14 09:02:11;;;;;;;22.08;18.05;;;;;;;9.04;100.00;162927.94;5061554;28;20404;-59
2022/03/14 09:04:36;;;;;;;20.55;16.55;;;;;;;9.10;100.00;162944.09;5068276;28;20032;-59
2022/03/14 09:07:02;;;;;;;19.75;16.73;;;;;;;9.08;100.00;162938.69;5047149;28;20459;-58
2022/03/14 09:09:28;;;;;;;21.80;17.63;;;;;;;9.01;100.00;162919.81;5034067;28;20037;-58
2022/03/14 09:11:53;;;;;;;23.63;19.38;;;;;;;9.01;100.00;162919.81;5031621;28;20037;-58
2022/03/14 09:14:19;;;;;;;19.50;17.40;;;;;;;9.03;100.00;162925.22;5051720;28;20033;-59
2022/03/14 09:16:44;;;;;;;20.73;18.30;;;;;;;9.04;100.00;162927.94;5053560;28;20492;-59
2022/03/14 09:19:09;;;;;;;24.25;19.17;;;;;;;9.12;100.00;162949.47;5059453;28;20025;-58
2022/03/14 09:21:35;;;;;;;22.00;18.30;;;;;;;9.27;100.00;162987.28;5052336;28;20039;-58
2022/03/14 09:24:00;;;;;;;21.73;18.48;;;;;;;9.32;100.00;163002.06;5052710;28;20021;-58
2022/03/14 09:26:26;;;;;;;23.33;20.15;;;;;;;9.27;100.00;162987.28;5055010;28;20388;-56
2022/03/14 09:28:51;;;;;;;22.35;19.90;;;;;;;9.23;100.00;162976.44;5073456;28;20033;-58
2022/03/14 09:31:17;;;;;;;23.63;18.35;;;;;;;9.28;100.00;162989.91;5070653;28;20039;-59
2022/03/14 09:33:42;;;;;;;21.48;18.55;;;;;;;9.42;100.00;163027.69;5073085;28;20028;-58
2022/03/14 09:36:08;;;;;;;25.10;18.15;;;;;;;9.59;100.00;163072.25;5065676;28;20902;-58
2022/03/14 09:38:33;;;;;;;20.27;17.80;;;;;;;9.64;100.00;163085.72;5067205;28;20024;-59
2022/03/14 09:41:04;;;;;;;24.70;17.85;;;;;;;9.71;100.00;163103.25;5062150;28;20047;-59
2022/03/14 09:43:31;;;;;;;23.10;19.20;;;;;;;9.76;100.00;163116.75;5057862;28;20047;-58
2022/03/14 09:46:00;;;;;;;20.15;17.73;;;;;;;9.85;100.00;163139.66;5069390;28;20035;-59
2022/03/14 09:48:25;;;;;;;20.83;18.70;;;;;;;9.72;100.00;163104.59;5036770;28;20503;-59
2022/03/14 09:50:53;;;;;;;19.83;16.45;;;;;;;9.80;100.00;163126.19;5045272;28;20140;-58
2022/03/14 09:53:19;;;;;;;26.17;16.10;;;;;;;9.77;100.00;163119.44;5042798;28;20036;-58
2022/03/14 09:55:47;;;;;;;23.35;18.00;;;;;;;9.83;100.00;163135.63;5037581;28;20385;-59
2022/03/14 09:58:18;;;;;;;19.48;17.40;;;;;;;10.00;100.00;163178.81;5065230;28;20066;-59
2022/03/14 10:00:44;;;;;;;21.58;17.33;;;;;;;10.28;100.00;163251.66;5058742;28;20052;-59
2022/03/14 10:03:10;;;;;;;19.60;17.55;;;;;;;10.34;100.00;163266.53;5058203;28;20036;-59
2022/03/14 10:05:36;;;;;;;23.77;19.27;;;;;;;10.52;100.00;163313.81;5063160;28;20106;-59
2022/03/14 10:08:02;;;;;;;27.38;20.63;;;;;;;10.43;100.00;163290.84;5060969;28;20439;-59
2022/03/14 10:10:28;;;;;;;24.65;18.58;;;;;;;10.64;100.00;163346.19;5062468;28;20078;-58
2022/03/14 10:12:56;;;;;;;24.27;21.77;;;;;;;10.69;100.00;163359.66;5063172;28;20036;-59
2022/03/14 10:15:22;;;;;;;23.08;20.00;;;;;;;10.89;100.00;163411.00;5061672;28;20143;-58
2022/03/14 10:17:48;;;;;;;24.42;20.65;;;;;;;11.04;100.00;163451.50;5059682;28;20036;-59
2022/03/14 10:20:15;;;;;;;23.50;19.50;;;;;;;10.93;100.00;163423.16;5068533;28;20020;-59
2022/03/14 10:22:42;;;;;;;21.95;19.05;;;;;;;10.74;100.00;163373.22;5053109;28;20051;-59
2022/03/14 10:25:13;;;;;;;24.85;18.48;;;;;;;10.53;100.00;163316.53;5060960;28;20074;-58
2022/03/14 10:27:41;;;;;;;24.02;20.67;;;;;;;10.72;100.00;163366.47;5062802;28;20036;-58
2022/03/14 10:30:40;;;;;;;25.48;20.38;;;;;;;10.90;100.00;163413.72;5065360;28;20035;-58
2022/03/14 10:33:06;;;;;;;23.77;18.35;;;;;;;11.14;100.00;163477.16;5065106;28;20070;-58
2022/03/14 10:35:36;;;;;;;22.88;17.85;;;;;;;11.11;100.00;163469.03;5070870;28;20100;-58
2022/03/14 10:38:04;;;;;;;26.30;18.52;;;;;;;11.40;100.00;163546.03;5068736;28;20127;-59
2022/03/14 10:40:34;;;;;;;18.95;16.73;;;;;;;11.48;100.00;163564.94;5061336;28;20388;-58
2022/03/14 10:43:00;;;;;;;17.33;15.50;;;;;;;11.53;100.00;163578.41;5050453;28;20454;-59
2022/03/14 10:45:30;;;;;;;22.83;17.38;;;;;;;11.01;100.00;163443.38;5051862;28;20047;-58
2022/03/14 10:47:57;;;;;;;20.65;17.20;;;;;;;11.47;100.00;163562.22;5050591;28;20048;-58
2022/03/14 10:50:30;;;;;;;16.38;13.10;;;;;;;11.67;100.00;163616.22;5057719;28;20391;-58
2022/03/14 10:53:11;;;;;;;21.88;15.30;;;;;;;11.63;100.00;163605.47;5070183;28;20070;-58
2022/03/14 10:55:45;;;;;;;17.88;14.27;;;;;;;11.72;100.00;163629.78;5071510;28;20020;-58
2022/03/14 10:58:33;;;;;;;32.75;17.75;;;;;;;11.94;100.00;163686.50;5069721;28;20041;-58
2022/03/14 11:01:00;;;;;;;23.23;16.48;;;;;;;12.48;100.00;163827.03;5062120;28;20041;-59
2022/03/14 11:03:29;;;;;;;20.10;17.70;;;;;;;12.83;100.00;163918.97;5050393;28;20037;-58
2022/03/14 11:06:01;;;;;;;21.75;16.25;;;;;;;12.95;100.00;163951.41;5058297;28;20041;-58
2022/03/14 11:08:36;;;;;;;18.35;16.42;;;;;;;12.79;100.00;163908.13;5059707;28;20071;-58
2022/03/14 11:11:04;;;;;;;24.50;16.83;;;;;;;12.57;100.00;163851.38;5070800;28;20032;-58